Lulea Sol, Sweden

12:56 AM CEST on July 29, 2014 (GMT +0200)
Kallax Air Base (ESPA) Elev 112 ft | 65.54 °N, 22.12 °E | Change Station

Current weather conditions updated 6 minutes ago

Light Rain
Light Rain
61 °F
Feels Like 61 °F
N
5
Wind Variable Wind from NNW

Today is forecast to be Cooler than yesterday.

Today
High -- | Low -- °F
--% Chance of Precip.
Yesterday
High -- | Low -- °F
Precip. -- in
3:10 AM 10:02 PM
Waxing Crescent, 4% visible
Pressure 29.77 in
Visibility 6.2 miles
Clouds Few 14000 ft
Dew Point 61 °F
Humidity 100%
Rainfall 0.00 in
Snow Depth Not available.
UV 0 out of 12
Pollen Not available.
Air Quality Not available.
Flu Activity Not available.
METAR ESPA 282250Z AUTO 33004KT 9999NDV -RA FEW140/// 16/16 Q1008

More Conditions Fewer Conditions

Pressure 29.77 in
Visibility 6.2 miles
Clouds Few 14000 ft
Dew Point 61 °F
Humidity 100%
Rainfall 0.00 in
Snow Depth Not available.
UV 0 out of 12
Pollen Not available.
Air Quality Not available.
Flu Activity Not available.
METAR ESPA 282250Z AUTO 33004KT 9999NDV -RA FEW140/// 16/16 Q1008

More Conditions Fewer Conditions

10-Day Weather Forecast

Almanac

Astronomy

Jul. 29, 2014 Rise Set
Actual Time 3:10 AM CEST 10:02 PM CEST
Civil Twilight 1:10 AM CEST 12:05 AM CEST
Nautical Twilight Sun does not rise Sun does not rise
Astronomical Twilight Sun does not rise Sun does not rise
Moon 7:02 AM CEST (7/29) 9:21 PM CEST (7/29)
Length of Visible Light 22h 55m
Length of Day
18h 51m
Tomorrow will be 7m 30s shorter.
Waxing Crescent, 4% of the Moon is Illuminated
Jul 28
Waxing Crescent
Aug 3
First Quarter
Aug 10
Full
Aug 17
Last Quarter
Aug 25
New

Yesterday's Extremes

Country Highs Country Lows

Community

WunderPhotos

Upload Photos

1,738,513 photos uploaded!

Nearby

Snow Depth

Not available.

Earthquake Activity

City Distance Mag. Time & Date
No recent earthquake activity has been reported nearby.
Minimum magnitude displayed is 2.5.

Coastal Water Temperatures

Place Temperature
No Stations Reporting

Nearby Weather Stations

Station Location Temp. Dew Point Humidity Wind Precip. Elev Updated Type
Luleå 60.8 °F 60 °F 97% East  at  1.6 mph 0.00 in / hr 75 ft 12:44 AM CEST Normal
Mjolkudden, Lulea 62.1 °F 62 °F 99% WNW  at  0.1 mph 0.00 in / hr 30 ft 12:45 AM CEST Normal
Lulea, Lulea 58.7 °F 57 °F 93% North  at  6.0 mph 0.00 in / hr 3 ft 12:45 AM CEST Normal
Hamnholmen, Rosvik 62.8 °F 62 °F 99% NW  at  1.6 mph 0.01 in / hr 2 ft 12:56 AM CEST Rapid Fire
Ranea, Ranea 59.4 °F 59 °F 99% North  at  1.3 mph 0.01 in / hr 0 ft 12:56 AM CEST Rapid Fire
Ubbyn, Boden 57.4 °F 56 °F 97% North  at  0.0 mph 0.00 in / hr 80 ft 12:56 AM CEST Rapid Fire

Show More Stations Show Fewer Stations